Time,TemperatureF,DewpointF,PressureIn,WindDirection,WindDirectionDegrees,WindSpeedMPH,WindSpeedGustMPH,Humidity,HourlyPrecipIn,Conditions,Clouds,dailyrainin,SoftwareType,DateUTC
2014-02-08 00:55:00,2.5,-13.0,29.91,SSE,148,2.9,3.1,47,0.00,,,0.00,VWS V14.01,2014-02-08 05:55:00,
2014-02-08 01:55:00,5.9,-9.8,29.91,WSW,238,1.6,2.7,47,0.00,,,0.00,VWS V14.01,2014-02-08 06:55:00,
2014-02-08 02:55:00,-0.2,-15.5,29.91,ESE,102,2.5,2.7,47,0.00,,,0.00,VWS V14.01,2014-02-08 07:55:00,
2014-02-08 03:55:00,4.3,-11.3,29.91,SSW,192,2.9,4.0,47,0.00,,,0.00,VWS V14.01,2014-02-08 08:55:00,
2014-02-08 04:55:00,7.2,-8.6,29.91,WSW,238,6.0,9.8,47,0.00,,,0.00,VWS V14.01,2014-02-08 09:55:00,
2014-02-08 05:55:00,5.7,-10.0,29.88,WNW,282,2.0,3.4,47,0.00,,,0.00,VWS V14.01,2014-02-08 10:55:00,
2014-02-08 06:55:00,1.2,-14.1,29.91,NE,35,1.3,1.3,47,0.00,,,0.00,VWS V14.01,2014-02-08 11:55:00,
2014-02-08 07:55:00,3.2,-12.3,29.91,SE,125,1.6,2.0,47,0.00,,,0.00,VWS V14.01,2014-02-08 12:55:00,
2014-02-08 08:55:00,11.7,-4.5,29.94,WNW,282,3.8,3.8,47,0.00,,,0.00,VWS V14.01,2014-02-08 13:55:00,
2014-02-08 09:55:00,10.6,-6.4,29.91,NNE,12,3.1,4.5,45,0.00,,,0.00,VWS V14.01,2014-02-08 14:55:00,
2014-02-08 10:55:00,14.5,-2.7,29.91,NNW,328,2.9,2.9,45,0.00,,,0.00,VWS V14.01,2014-02-08 15:55:00,
2014-02-08 11:55:00,16.5,0.0,29.91,NNE,12,3.4,3.4,47,0.00,,,0.00,VWS V14.01,2014-02-08 16:55:00,
2014-02-08 12:55:00,19.4,2.2,29.82,NNW,328,4.7,4.9,46,0.00,,,0.00,VWS V14.01,2014-02-08 17:55:00,
2014-02-08 13:55:00,18.0,3.1,29.85,NNW,328,5.6,6.3,51,0.00,,,0.00,VWS V14.01,2014-02-08 18:55:00,
2014-02-08 14:55:00,18.1,4.1,29.85,NW,305,3.8,4.0,53,0.00,,,0.00,VWS V14.01,2014-02-08 19:55:00,
2014-02-08 15:55:00,21.9,4.5,29.85,West,260,1.3,2.2,46,0.00,,,0.00,VWS V14.01,2014-02-08 20:55:00,
2014-02-08 16:55:00,16.2,0.1,29.85,SW,215,0.9,1.3,48,0.00,,,0.00,VWS V14.01,2014-02-08 21:55:00,
2014-02-08 17:55:00,14.5,-1.0,29.85,WSW,238,0.9,0.9,49,0.00,,,0.00,VWS V14.01,2014-02-08 22:55:00,
2014-02-08 18:55:00,13.8,-0.8,29.82,SSE,148,0.9,0.9,51,0.00,,,0.00,VWS V14.01,2014-02-08 23:55:00,
2014-02-08 19:55:00,14.2,0.0,29.79,SE,125,0.9,0.9,52,0.00,,,0.00,VWS V14.01,2014-02-09 00:55:00,
2014-02-08 20:55:00,12.7,-1.4,29.82,SE,125,0.9,0.9,52,0.00,,,0.00,VWS V14.01,2014-02-09 01:55:00,
2014-02-08 21:55:00,12.2,-1.9,29.82,SSE,148,1.3,1.6,52,0.00,,,0.00,VWS V14.01,2014-02-09 02:55:00,
2014-02-08 22:55:00,13.5,-0.7,29.79,SSE,148,0.9,2.5,52,0.00,,,0.00,VWS V14.01,2014-02-09 03:55:00,
2014-02-08 23:55:00,13.3,-0.9,29.79,SSE,148,2.2,2.5,52,0.00,,,0.00,VWS V14.01,2014-02-09 04:55:00,